sensor_id;sensor_type;location;lat;lon;timestamp;P1;durP1;ratioP1;P2;durP2;ratioP2
17141;SDS011;32805;53.556;9.944;2022-10-15T00:01:43;10.20;;;8.88;;
17141;SDS011;32805;53.556;9.944;2022-10-15T00:04:11;12.27;;;8.60;;
17141;SDS011;32805;53.556;9.944;2022-10-15T00:06:38;11.23;;;9.98;;
17141;SDS011;32805;53.556;9.944;2022-10-15T00:09:06;12.35;;;10.38;;
17141;SDS011;32805;53.556;9.944;2022-10-15T00:11:33;13.85;;;9.43;;
17141;SDS011;32805;53.556;9.944;2022-10-15T00:14:02;11.63;;;10.30;;
17141;SDS011;32805;53.556;9.944;2022-10-15T00:16:31;13.27;;;10.85;;
17141;SDS011;32805;53.556;9.944;2022-10-15T00:18:59;13.45;;;10.25;;
17141;SDS011;32805;53.556;9.944;2022-10-15T00:21:26;14.82;;;11.23;;
17141;SDS011;32805;53.556;9.944;2022-10-15T00:23:55;16.23;;;11.70;;
17141;SDS011;32805;53.556;9.944;2022-10-15T00:26:24;15.15;;;11.10;;
17141;SDS011;32805;53.556;9.944;2022-10-15T00:28:53;14.85;;;11.18;;
17141;SDS011;32805;53.556;9.944;2022-10-15T00:31:23;14.73;;;11.90;;
17141;SDS011;32805;53.556;9.944;2022-10-15T00:33:54;14.68;;;11.50;;
17141;SDS011;32805;53.556;9.944;2022-10-15T00:36:24;13.77;;;10.68;;
17141;SDS011;32805;53.556;9.944;2022-10-15T00:38:53;15.35;;;9.90;;
17141;SDS011;32805;53.556;9.944;2022-10-15T00:41:21;16.17;;;10.85;;
17141;SDS011;32805;53.556;9.944;2022-10-15T00:43:50;14.32;;;11.32;;
17141;SDS011;32805;53.556;9.944;2022-10-15T00:46:21;12.77;;;10.40;;
17141;SDS011;32805;53.556;9.944;2022-10-15T00:48:53;14.52;;;11.02;;
17141;SDS011;32805;53.556;9.944;2022-10-15T00:51:25;16.38;;;11.85;;
17141;SDS011;32805;53.556;9.944;2022-10-15T00:53:57;17.88;;;12.38;;
17141;SDS011;32805;53.556;9.944;2022-10-15T00:56:25;14.27;;;9.80;;
17141;SDS011;32805;53.556;9.944;2022-10-15T00:58:55;17.20;;;12.30;;
17141;SDS011;32805;53.556;9.944;2022-10-15T01:01:23;14.07;;;11.07;;
17141;SDS011;32805;53.556;9.944;2022-10-15T01:03:52;13.35;;;9.95;;
17141;SDS011;32805;53.556;9.944;2022-10-15T01:06:22;15.23;;;11.73;;
17141;SDS011;32805;53.556;9.944;2022-10-15T01:08:50;18.48;;;13.00;;
17141;SDS011;32805;53.556;9.944;2022-10-15T01:11:23;21.00;;;13.82;;
17141;SDS011;32805;53.556;9.944;2022-10-15T01:14:05;20.50;;;13.65;;
17141;SDS011;32805;53.556;9.944;2022-10-15T01:16:43;20.40;;;14.68;;
17141;SDS011;32805;53.556;9.944;2022-10-15T01:19:19;18.23;;;13.18;;
17141;SDS011;32805;53.556;9.944;2022-10-15T01:21:58;21.75;;;14.10;;
17141;SDS011;32805;53.556;9.944;2022-10-15T01:24:38;20.73;;;14.70;;
17141;SDS011;32805;53.556;9.944;2022-10-15T01:27:19;23.55;;;15.50;;
17141;SDS011;32805;53.556;9.944;2022-10-15T01:30:03;21.45;;;15.10;;
17141;SDS011;32805;53.556;9.944;2022-10-15T01:33:06;23.00;;;15.40;;
17141;SDS011;32805;53.556;9.944;2022-10-15T01:35:48;21.80;;;15.77;;
17141;SDS011;32805;53.556;9.944;2022-10-15T01:38:32;22.88;;;16.52;;
17141;SDS011;32805;53.556;9.944;2022-10-15T01:41:07;22.50;;;16.42;;
17141;SDS011;32805;53.556;9.944;2022-10-15T01:43:38;21.85;;;15.27;;
17141;SDS011;32805;53.556;9.944;2022-10-15T01:46:26;20.77;;;14.77;;
17141;SDS011;32805;53.556;9.944;2022-10-15T01:49:03;21.23;;;15.75;;
17141;SDS011;32805;53.556;9.944;2022-10-15T01:51:32;23.60;;;16.27;;
17141;SDS011;32805;53.556;9.944;2022-10-15T01:54:03;24.38;;;16.45;;
17141;SDS011;32805;53.556;9.944;2022-10-15T01:56:33;22.10;;;17.00;;
17141;SDS011;32805;53.556;9.944;2022-10-15T01:59:03;23.67;;;16.48;;
17141;SDS011;32805;53.556;9.944;2022-10-15T02:01:33;25.65;;;16.17;;
17141;SDS011;32805;53.556;9.944;2022-10-15T02:04:16;25.50;;;16.80;;
17141;SDS011;32805;53.556;9.944;2022-10-15T02:06:45;25.05;;;17.30;;
17141;SDS011;32805;53.556;9.944;2022-10-15T02:09:19;26.55;;;18.60;;
17141;SDS011;32805;53.556;9.944;2022-10-15T02:11:55;24.15;;;16.70;;
17141;SDS011;32805;53.556;9.944;2022-10-15T02:14:32;25.70;;;17.55;;
17141;SDS011;32805;53.556;9.944;2022-10-15T02:17:04;24.23;;;16.55;;
17141;SDS011;32805;53.556;9.944;2022-10-15T02:19:39;22.75;;;16.73;;
17141;SDS011;32805;53.556;9.944;2022-10-15T02:22:12;24.55;;;16.30;;
17141;SDS011;32805;53.556;9.944;2022-10-15T02:24:45;24.95;;;17.92;;
17141;SDS011;32805;53.556;9.944;2022-10-15T02:27:21;25.90;;;17.23;;
17141;SDS011;32805;53.556;9.944;2022-10-15T02:29:50;17.80;;;13.68;;
17141;SDS011;32805;53.556;9.944;2022-10-15T02:32:20;27.17;;;17.23;;
17141;SDS011;32805;53.556;9.944;2022-10-15T02:34:51;30.20;;;19.05;;
17141;SDS011;32805;53.556;9.944;2022-10-15T02:37:21;28.88;;;18.70;;
17141;SDS011;32805;53.556;9.944;2022-10-15T02:39:51;27.15;;;17.65;;
17141;SDS011;32805;53.556;9.944;2022-10-15T02:42:19;26.55;;;17.38;;
17141;SDS011;32805;53.556;9.944;2022-10-15T02:44:48;25.27;;;17.63;;
17141;SDS011;32805;53.556;9.944;2022-10-15T02:47:16;24.73;;;17.17;;
17141;SDS011;32805;53.556;9.944;2022-10-15T02:49:44;19.40;;;14.50;;
17141;SDS011;32805;53.556;9.944;2022-10-15T02:52:13;21.80;;;15.13;;
17141;SDS011;32805;53.556;9.944;2022-10-15T02:54:41;23.88;;;16.83;;
17141;SDS011;32805;53.556;9.944;2022-10-15T02:57:09;20.52;;;14.30;;
17141;SDS011;32805;53.556;9.944;2022-10-15T02:59:40;21.42;;;14.57;;
17141;SDS011;32805;53.556;9.944;2022-10-15T03:02:08;19.83;;;13.82;;
17141;SDS011;32805;53.556;9.944;2022-10-15T03:04:44;19.45;;;13.57;;
17141;SDS011;32805;53.556;9.944;2022-10-15T03:07:14;20.73;;;14.30;;
17141;SDS011;32805;53.556;9.944;2022-10-15T03:09:42;19.15;;;13.15;;
17141;SDS011;32805;53.556;9.944;2022-10-15T03:12:10;21.35;;;13.85;;
17141;SDS011;32805;53.556;9.944;2022-10-15T03:14:37;19.80;;;12.77;;
17141;SDS011;32805;53.556;9.944;2022-10-15T03:17:05;19.83;;;13.65;;
17141;SDS011;32805;53.556;9.944;2022-10-15T03:19:33;18.55;;;12.88;;
17141;SDS011;32805;53.556;9.944;2022-10-15T03:22:01;22.48;;;14.60;;
17141;SDS011;32805;53.556;9.944;2022-10-15T03:24:40;20.88;;;14.40;;
17141;SDS011;32805;53.556;9.944;2022-10-15T03:27:09;19.80;;;13.23;;
17141;SDS011;32805;53.556;9.944;2022-10-15T03:29:36;22.95;;;13.35;;
17141;SDS011;32805;53.556;9.944;2022-10-15T03:32:05;20.60;;;14.32;;
17141;SDS011;32805;53.556;9.944;2022-10-15T03:34:33;24.85;;;15.45;;
17141;SDS011;32805;53.556;9.944;2022-10-15T03:37:00;21.25;;;14.80;;
17141;SDS011;32805;53.556;9.944;2022-10-15T03:39:28;20.48;;;14.25;;
17141;SDS011;32805;53.556;9.944;2022-10-15T03:42:01;23.88;;;14.85;;
17141;SDS011;32805;53.556;9.944;2022-10-15T03:44:35;26.83;;;15.25;;
17141;SDS011;32805;53.556;9.944;2022-10-15T03:47:08;22.95;;;15.52;;
17141;SDS011;32805;53.556;9.944;2022-10-15T03:49:46;26.67;;;14.77;;
17141;SDS011;32805;53.556;9.944;2022-10-15T03:52:14;30.42;;;16.75;;
17141;SDS011;32805;53.556;9.944;2022-10-15T03:54:44;26.13;;;14.40;;
17141;SDS011;32805;53.556;9.944;2022-10-15T03:57:16;28.25;;;16.10;;
17141;SDS011;32805;53.556;9.944;2022-10-15T03:59:49;23.00;;;13.80;;
17141;SDS011;32805;53.556;9.944;2022-10-15T04:02:18;23.55;;;15.05;;
17141;SDS011;32805;53.556;9.944;2022-10-15T04:04:46;25.35;;;15.57;;
17141;SDS011;32805;53.556;9.944;2022-10-15T04:07:14;22.38;;;15.00;;
17141;SDS011;32805;53.556;9.944;2022-10-15T04:09:42;22.13;;;14.73;;
17141;SDS011;32805;53.556;9.944;2022-10-15T04:12:23;23.42;;;15.35;;
17141;SDS011;32805;53.556;9.944;2022-10-15T04:14:51;23.63;;;14.88;;
17141;SDS011;32805;53.556;9.944;2022-10-15T04:17:20;25.50;;;14.27;;
17141;SDS011;32805;53.556;9.944;2022-10-15T04:19:48;26.33;;;15.50;;
17141;SDS011;32805;53.556;9.944;2022-10-15T04:22:18;28.38;;;16.25;;
17141;SDS011;32805;53.556;9.944;2022-10-15T04:24:50;26.38;;;14.60;;
17141;SDS011;32805;53.556;9.944;2022-10-15T04:27:27;27.75;;;16.05;;
17141;SDS011;32805;53.556;9.944;2022-10-15T04:30:08;29.70;;;16.42;;
17141;SDS011;32805;53.556;9.944;2022-10-15T04:32:42;24.50;;;13.98;;
17141;SDS011;32805;53.556;9.944;2022-10-15T04:35:10;26.90;;;14.30;;
17141;SDS011;32805;53.556;9.944;2022-10-15T04:37:49;30.60;;;16.35;;
17141;SDS011;32805;53.556;9.944;2022-10-15T04:40:17;30.05;;;16.95;;
17141;SDS011;32805;53.556;9.944;2022-10-15T04:42:47;32.90;;;19.17;;
17141;SDS011;32805;53.556;9.944;2022-10-15T04:45:14;31.30;;;17.35;;
17141;SDS011;32805;53.556;9.944;2022-10-15T04:47:42;35.80;;;18.45;;
17141;SDS011;32805;53.556;9.944;2022-10-15T04:50:12;33.95;;;18.90;;
17141;SDS011;32805;53.556;9.944;2022-10-15T04:52:59;35.75;;;19.45;;
17141;SDS011;32805;53.556;9.944;2022-10-15T04:55:31;34.67;;;17.92;;
17141;SDS011;32805;53.556;9.944;2022-10-15T04:58:01;35.60;;;19.50;;
17141;SDS011;32805;53.556;9.944;2022-10-15T05:00:29;32.38;;;17.77;;
17141;SDS011;32805;53.556;9.944;2022-10-15T05:03:15;39.08;;;19.13;;
17141;SDS011;32805;53.556;9.944;2022-10-15T05:05:52;34.03;;;17.88;;
17141;SDS011;32805;53.556;9.944;2022-10-15T05:08:19;27.08;;;15.35;;
17141;SDS011;32805;53.556;9.944;2022-10-15T05:11:04;37.10;;;17.20;;
17141;SDS011;32805;53.556;9.944;2022-10-15T05:13:35;36.92;;;18.52;;
17141;SDS011;32805;53.556;9.944;2022-10-15T05:16:10;31.77;;;18.10;;
17141;SDS011;32805;53.556;9.944;2022-10-15T05:18:41;34.00;;;19.38;;
17141;SDS011;32805;53.556;9.944;2022-10-15T05:21:09;32.88;;;17.67;;
17141;SDS011;32805;53.556;9.944;2022-10-15T05:23:39;35.60;;;18.45;;
17141;SDS011;32805;53.556;9.944;2022-10-15T05:26:17;35.38;;;18.08;;
17141;SDS011;32805;53.556;9.944;2022-10-15T05:28:47;33.75;;;18.75;;
17141;SDS011;32805;53.556;9.944;2022-10-15T05:31:23;29.88;;;15.98;;
17141;SDS011;32805;53.556;9.944;2022-10-15T05:34:04;34.17;;;18.17;;
17141;SDS011;32805;53.556;9.944;2022-10-15T05:36:41;35.13;;;20.05;;
17141;SDS011;32805;53.556;9.944;2022-10-15T05:39:09;32.90;;;18.25;;
17141;SDS011;32805;53.556;9.944;2022-10-15T05:41:42;32.30;;;18.10;;
17141;SDS011;32805;53.556;9.944;2022-10-15T05:44:11;30.05;;;17.58;;
17141;SDS011;32805;53.556;9.944;2022-10-15T05:46:39;36.97;;;18.83;;
17141;SDS011;32805;53.556;9.944;2022-10-15T05:49:12;43.10;;;19.65;;
17141;SDS011;32805;53.556;9.944;2022-10-15T05:51:48;41.00;;;21.00;;
17141;SDS011;32805;53.556;9.944;2022-10-15T05:54:30;36.72;;;19.52;;
17141;SDS011;32805;53.556;9.944;2022-10-15T05:56:58;39.85;;;19.52;;
17141;SDS011;32805;53.556;9.944;2022-10-15T05:59:27;38.97;;;20.30;;
17141;SDS011;32805;53.556;9.944;2022-10-15T06:01:55;35.90;;;18.73;;
17141;SDS011;32805;53.556;9.944;2022-10-15T06:04:22;41.53;;;20.25;;
17141;SDS011;32805;53.556;9.944;2022-10-15T06:06:50;39.80;;;21.17;;
17141;SDS011;32805;53.556;9.944;2022-10-15T06:09:18;38.13;;;19.55;;
17141;SDS011;32805;53.556;9.944;2022-10-15T06:11:45;37.40;;;19.40;;
17141;SDS011;32805;53.556;9.944;2022-10-15T06:14:16;54.80;;;23.63;;
17141;SDS011;32805;53.556;9.944;2022-10-15T06:16:45;36.45;;;20.00;;
17141;SDS011;32805;53.556;9.944;2022-10-15T06:19:15;40.25;;;20.83;;
17141;SDS011;32805;53.556;9.944;2022-10-15T06:21:43;33.45;;;17.92;;
17141;SDS011;32805;53.556;9.944;2022-10-15T06:24:11;36.40;;;19.42;;
17141;SDS011;32805;53.556;9.944;2022-10-15T06:26:38;39.58;;;20.08;;
17141;SDS011;32805;53.556;9.944;2022-10-15T06:29:06;34.83;;;18.20;;
17141;SDS011;32805;53.556;9.944;2022-10-15T06:31:33;32.28;;;17.95;;
17141;SDS011;32805;53.556;9.944;2022-10-15T06:34:02;34.42;;;18.58;;
17141;SDS011;32805;53.556;9.944;2022-10-15T06:36:30;34.55;;;18.75;;
17141;SDS011;32805;53.556;9.944;2022-10-15T06:38:58;30.95;;;18.13;;
17141;SDS011;32805;53.556;9.944;2022-10-15T06:41:25;32.72;;;18.10;;
17141;SDS011;32805;53.556;9.944;2022-10-15T06:43:53;38.75;;;21.05;;
17141;SDS011;32805;53.556;9.944;2022-10-15T06:46:20;38.60;;;19.77;;
17141;SDS011;32805;53.556;9.944;2022-10-15T06:48:48;31.98;;;19.55;;
17141;SDS011;32805;53.556;9.944;2022-10-15T06:51:18;38.70;;;19.42;;
17141;SDS011;32805;53.556;9.944;2022-10-15T06:53:48;31.10;;;16.75;;
17141;SDS011;32805;53.556;9.944;2022-10-15T06:56:16;34.47;;;18.27;;
17141;SDS011;32805;53.556;9.944;2022-10-15T06:58:44;38.63;;;19.23;;
17141;SDS011;32805;53.556;9.944;2022-10-15T07:01:11;34.67;;;17.67;;
17141;SDS011;32805;53.556;9.944;2022-10-15T07:03:39;39.20;;;20.38;;
17141;SDS011;32805;53.556;9.944;2022-10-15T07:06:07;33.50;;;18.92;;
17141;SDS011;32805;53.556;9.944;2022-10-15T07:08:37;34.80;;;18.52;;
17141;SDS011;32805;53.556;9.944;2022-10-15T07:11:05;34.83;;;18.90;;
17141;SDS011;32805;53.556;9.944;2022-10-15T07:13:34;34.30;;;18.98;;
17141;SDS011;32805;53.556;9.944;2022-10-15T07:16:02;39.42;;;20.52;;
17141;SDS011;32805;53.556;9.944;2022-10-15T07:18:32;41.55;;;20.60;;
17141;SDS011;32805;53.556;9.944;2022-10-15T07:21:00;34.42;;;17.70;;
17141;SDS011;32805;53.556;9.944;2022-10-15T07:23:28;31.98;;;18.10;;
17141;SDS011;32805;53.556;9.944;2022-10-15T07:25:57;43.55;;;21.02;;
17141;SDS011;32805;53.556;9.944;2022-10-15T07:28:25;40.92;;;21.38;;
17141;SDS011;32805;53.556;9.944;2022-10-15T07:30:53;35.45;;;18.88;;
17141;SDS011;32805;53.556;9.944;2022-10-15T07:33:21;36.80;;;19.50;;
17141;SDS011;32805;53.556;9.944;2022-10-15T07:35:57;33.95;;;16.52;;
17141;SDS011;32805;53.556;9.944;2022-10-15T07:38:25;30.13;;;17.08;;
17141;SDS011;32805;53.556;9.944;2022-10-15T07:40:57;29.27;;;16.45;;
17141;SDS011;32805;53.556;9.944;2022-10-15T07:43:25;40.17;;;20.83;;
17141;SDS011;32805;53.556;9.944;2022-10-15T07:45:53;29.48;;;17.65;;
17141;SDS011;32805;53.556;9.944;2022-10-15T07:48:21;42.25;;;23.58;;
17141;SDS011;32805;53.556;9.944;2022-10-15T07:50:52;38.10;;;19.90;;
17141;SDS011;32805;53.556;9.944;2022-10-15T07:53:20;36.40;;;19.52;;
17141;SDS011;32805;53.556;9.944;2022-10-15T07:55:52;36.90;;;19.83;;
17141;SDS011;32805;53.556;9.944;2022-10-15T07:58:21;31.95;;;16.65;;
17141;SDS011;32805;53.556;9.944;2022-10-15T08:00:49;35.53;;;19.00;;
17141;SDS011;32805;53.556;9.944;2022-10-15T08:03:17;42.85;;;20.75;;
17141;SDS011;32805;53.556;9.944;2022-10-15T08:05:44;27.95;;;15.40;;
17141;SDS011;32805;53.556;9.944;2022-10-15T08:08:12;30.27;;;17.45;;
17141;SDS011;32805;53.556;9.944;2022-10-15T08:10:40;28.20;;;16.73;;
17141;SDS011;32805;53.556;9.944;2022-10-15T08:13:07;31.13;;;18.05;;
17141;SDS011;32805;53.556;9.944;2022-10-15T08:15:38;28.55;;;15.68;;
17141;SDS011;32805;53.556;9.944;2022-10-15T08:18:06;26.30;;;13.27;;
17141;SDS011;32805;53.556;9.944;2022-10-15T08:20:35;25.55;;;13.50;;
17141;SDS011;32805;53.556;9.944;2022-10-15T08:23:03;32.03;;;17.15;;
17141;SDS011;32805;53.556;9.944;2022-10-15T08:25:31;25.10;;;14.25;;
17141;SDS011;32805;53.556;9.944;2022-10-15T08:27:58;24.08;;;14.52;;
17141;SDS011;32805;53.556;9.944;2022-10-15T08:30:26;21.60;;;13.27;;
17141;SDS011;32805;53.556;9.944;2022-10-15T08:32:55;22.58;;;13.60;;
17141;SDS011;32805;53.556;9.944;2022-10-15T08:35:23;19.92;;;12.80;;
17141;SDS011;32805;53.556;9.944;2022-10-15T08:37:52;23.92;;;13.20;;
17141;SDS011;32805;53.556;9.944;2022-10-15T08:40:20;23.23;;;12.57;;
17141;SDS011;32805;53.556;9.944;2022-10-15T08:42:48;20.35;;;12.68;;
17141;SDS011;32805;53.556;9.944;2022-10-15T08:45:16;22.60;;;14.18;;
17141;SDS011;32805;53.556;9.944;2022-10-15T08:47:50;24.35;;;14.88;;
17141;SDS011;32805;53.556;9.944;2022-10-15T08:50:25;24.08;;;13.65;;
17141;SDS011;32805;53.556;9.944;2022-10-15T08:53:00;23.50;;;12.18;;
17141;SDS011;32805;53.556;9.944;2022-10-15T08:55:32;22.17;;;12.23;;
17141;SDS011;32805;53.556;9.944;2022-10-15T08:58:05;24.35;;;13.75;;
17141;SDS011;32805;53.556;9.944;2022-10-15T09:00:42;20.05;;;13.52;;
17141;SDS011;32805;53.556;9.944;2022-10-15T09:03:17;18.27;;;11.25;;
17141;SDS011;32805;53.556;9.944;2022-10-15T09:06:00;17.67;;;12.40;;
17141;SDS011;32805;53.556;9.944;2022-10-15T09:08:35;22.42;;;13.52;;
17141;SDS011;32805;53.556;9.944;2022-10-15T09:11:12;20.08;;;13.77;;
17141;SDS011;32805;53.556;9.944;2022-10-15T09:13:45;25.98;;;14.77;;
17141;SDS011;32805;53.556;9.944;2022-10-15T09:16:21;21.90;;;12.50;;
17141;SDS011;32805;53.556;9.944;2022-10-15T09:18:53;19.40;;;12.32;;
17141;SDS011;32805;53.556;9.944;2022-10-15T09:21:23;19.98;;;12.77;;
17141;SDS011;32805;53.556;9.944;2022-10-15T09:23:52;18.85;;;12.52;;
17141;SDS011;32805;53.556;9.944;2022-10-15T09:26:24;24.88;;;14.90;;
17141;SDS011;32805;53.556;9.944;2022-10-15T09:28:57;20.45;;;13.30;;
17141;SDS011;32805;53.556;9.944;2022-10-15T09:31:34;18.48;;;11.32;;
17141;SDS011;32805;53.556;9.944;2022-10-15T09:34:10;25.63;;;13.95;;
17141;SDS011;32805;53.556;9.944;2022-10-15T09:36:47;21.27;;;12.35;;
17141;SDS011;32805;53.556;9.944;2022-10-15T09:39:31;16.40;;;9.63;;
17141;SDS011;32805;53.556;9.944;2022-10-15T09:42:11;18.02;;;11.90;;
17141;SDS011;32805;53.556;9.944;2022-10-15T09:44:46;20.80;;;10.55;;
17141;SDS011;32805;53.556;9.944;2022-10-15T09:47:15;17.90;;;11.55;;
17141;SDS011;32805;53.556;9.944;2022-10-15T09:49:48;24.60;;;14.40;;
17141;SDS011;32805;53.556;9.944;2022-10-15T09:52:18;23.83;;;12.02;;
17141;SDS011;32805;53.556;9.944;2022-10-15T09:54:54;21.30;;;13.25;;
17141;SDS011;32805;53.556;9.944;2022-10-15T09:57:31;19.67;;;12.30;;
17141;SDS011;32805;53.556;9.944;2022-10-15T10:00:03;17.42;;;10.45;;
17141;SDS011;32805;53.556;9.944;2022-10-15T10:02:42;16.33;;;11.35;;
17141;SDS011;32805;53.556;9.944;2022-10-15T10:05:17;18.65;;;11.10;;
17141;SDS011;32805;53.556;9.944;2022-10-15T10:07:48;16.83;;;10.25;;
17141;SDS011;32805;53.556;9.944;2022-10-15T10:10:21;14.23;;;9.52;;
17141;SDS011;32805;53.556;9.944;2022-10-15T10:12:51;16.30;;;9.25;;
17141;SDS011;32805;53.556;9.944;2022-10-15T10:15:27;16.63;;;8.20;;
17141;SDS011;32805;53.556;9.944;2022-10-15T10:17:59;13.48;;;9.45;;
17141;SDS011;32805;53.556;9.944;2022-10-15T10:20:27;14.95;;;8.98;;
17141;SDS011;32805;53.556;9.944;2022-10-15T10:22:57;66.82;;;14.02;;
17141;SDS011;32805;53.556;9.944;2022-10-15T10:25:29;20.15;;;9.48;;
17141;SDS011;32805;53.556;9.944;2022-10-15T10:28:02;22.00;;;9.55;;
17141;SDS011;32805;53.556;9.944;2022-10-15T10:30:33;14.93;;;7.93;;
17141;SDS011;32805;53.556;9.944;2022-10-15T10:33:04;16.48;;;8.80;;
17141;SDS011;32805;53.556;9.944;2022-10-15T10:35:33;16.77;;;9.85;;
17141;SDS011;32805;53.556;9.944;2022-10-15T10:38:18;20.30;;;9.75;;
17141;SDS011;32805;53.556;9.944;2022-10-15T10:40:50;16.85;;;8.75;;
17141;SDS011;32805;53.556;9.944;2022-10-15T10:43:22;13.00;;;8.48;;
17141;SDS011;32805;53.556;9.944;2022-10-15T10:45:55;16.20;;;8.90;;
17141;SDS011;32805;53.556;9.944;2022-10-15T10:48:26;19.75;;;9.52;;
17141;SDS011;32805;53.556;9.944;2022-10-15T10:51:01;13.20;;;7.90;;
17141;SDS011;32805;53.556;9.944;2022-10-15T10:53:38;10.10;;;6.22;;
17141;SDS011;32805;53.556;9.944;2022-10-15T10:56:12;13.70;;;7.65;;
17141;SDS011;32805;53.556;9.944;2022-10-15T10:58:40;12.23;;;7.03;;
17141;SDS011;32805;53.556;9.944;2022-10-15T11:01:09;13.75;;;7.38;;
17141;SDS011;32805;53.556;9.944;2022-10-15T11:03:40;12.35;;;7.47;;
17141;SDS011;32805;53.556;9.944;2022-10-15T11:06:24;10.30;;;6.93;;
17141;SDS011;32805;53.556;9.944;2022-10-15T11:09:11;12.15;;;7.35;;
17141;SDS011;32805;53.556;9.944;2022-10-15T11:11:49;11.93;;;7.00;;
17141;SDS011;32805;53.556;9.944;2022-10-15T11:14:28;11.02;;;7.07;;
17141;SDS011;32805;53.556;9.944;2022-10-15T11:17:03;10.65;;;7.43;;
17141;SDS011;32805;53.556;9.944;2022-10-15T11:19:43;13.30;;;7.15;;
17141;SDS011;32805;53.556;9.944;2022-10-15T11:22:40;13.35;;;7.22;;
17141;SDS011;32805;53.556;9.944;2022-10-15T11:25:22;8.48;;;5.35;;
17141;SDS011;32805;53.556;9.944;2022-10-15T11:28:04;9.25;;;5.50;;
17141;SDS011;32805;53.556;9.944;2022-10-15T11:30:47;9.90;;;5.60;;
17141;SDS011;32805;53.556;9.944;2022-10-15T11:33:23;8.88;;;5.05;;
17141;SDS011;32805;53.556;9.944;2022-10-15T11:36:05;7.03;;;4.00;;
17141;SDS011;32805;53.556;9.944;2022-10-15T11:38:44;8.27;;;3.80;;
17141;SDS011;32805;53.556;9.944;2022-10-15T11:41:23;4.38;;;2.90;;
17141;SDS011;32805;53.556;9.944;2022-10-15T11:44:10;4.95;;;2.78;;
17141;SDS011;32805;53.556;9.944;2022-10-15T11:46:49;6.53;;;3.30;;
17141;SDS011;32805;53.556;9.944;2022-10-15T11:49:28;3.40;;;2.65;;
17141;SDS011;32805;53.556;9.944;2022-10-15T11:52:10;6.03;;;3.33;;
17141;SDS011;32805;53.556;9.944;2022-10-15T11:54:46;4.75;;;3.20;;
17141;SDS011;32805;53.556;9.944;2022-10-15T11:57:28;8.20;;;3.15;;
17141;SDS011;32805;53.556;9.944;2022-10-15T11:59:59;5.78;;;2.33;;
17141;SDS011;32805;53.556;9.944;2022-10-15T12:02:37;4.32;;;2.80;;
17141;SDS011;32805;53.556;9.944;2022-10-15T12:05:06;6.15;;;3.03;;
17141;SDS011;32805;53.556;9.944;2022-10-15T12:07:37;7.93;;;3.33;;
17141;SDS011;32805;53.556;9.944;2022-10-15T12:10:15;7.97;;;3.33;;
17141;SDS011;32805;53.556;9.944;2022-10-15T12:12:58;4.85;;;2.80;;
17141;SDS011;32805;53.556;9.944;2022-10-15T12:15:33;5.68;;;2.60;;
17141;SDS011;32805;53.556;9.944;2022-10-15T12:18:09;6.97;;;3.00;;
17141;SDS011;32805;53.556;9.944;2022-10-15T12:20:43;5.88;;;3.30;;
17141;SDS011;32805;53.556;9.944;2022-10-15T12:23:22;6.13;;;4.00;;
17141;SDS011;32805;53.556;9.944;2022-10-15T12:25:52;9.40;;;3.75;;
17141;SDS011;32805;53.556;9.944;2022-10-15T12:28:22;4.80;;;3.10;;
17141;SDS011;32805;53.556;9.944;2022-10-15T12:30:59;7.22;;;4.10;;
17141;SDS011;32805;53.556;9.944;2022-10-15T12:33:30;6.32;;;3.33;;
17141;SDS011;32805;53.556;9.944;2022-10-15T12:36:01;5.97;;;3.10;;
17141;SDS011;32805;53.556;9.944;2022-10-15T12:38:35;5.50;;;3.03;;
17141;SDS011;32805;53.556;9.944;2022-10-15T12:41:06;6.13;;;3.50;;
17141;SDS011;32805;53.556;9.944;2022-10-15T12:43:38;6.32;;;3.20;;
17141;SDS011;32805;53.556;9.944;2022-10-15T12:46:09;5.78;;;4.00;;
17141;SDS011;32805;53.556;9.944;2022-10-15T12:48:39;6.28;;;3.80;;
17141;SDS011;32805;53.556;9.944;2022-10-15T12:57:00;5.07;;;3.53;;
17141;SDS011;32805;53.556;9.944;2022-10-15T12:59:51;6.75;;;4.28;;
17141;SDS011;32805;53.556;9.944;2022-10-15T13:02:34;4.57;;;3.75;;
17141;SDS011;32805;53.556;9.944;2022-10-15T13:05:05;4.88;;;3.25;;
17141;SDS011;32805;53.556;9.944;2022-10-15T13:07:38;9.32;;;3.78;;
17141;SDS011;32805;53.556;9.944;2022-10-15T13:10:15;6.47;;;3.25;;
17141;SDS011;32805;53.556;9.944;2022-10-15T13:12:50;5.30;;;3.53;;
17141;SDS011;32805;53.556;9.944;2022-10-15T13:15:22;4.63;;;3.83;;
17141;SDS011;32805;53.556;9.944;2022-10-15T13:17:52;6.28;;;4.22;;
17141;SDS011;32805;53.556;9.944;2022-10-15T13:20:28;5.25;;;3.60;;
17141;SDS011;32805;53.556;9.944;2022-10-15T13:23:06;8.88;;;4.45;;
17141;SDS011;32805;53.556;9.944;2022-10-15T13:26:10;8.32;;;4.72;;
17141;SDS011;32805;53.556;9.944;2022-10-15T13:28:42;4.47;;;3.67;;
17141;SDS011;32805;53.556;9.944;2022-10-15T13:31:20;6.63;;;4.55;;
17141;SDS011;32805;53.556;9.944;2022-10-15T13:33:56;5.13;;;3.97;;
17141;SDS011;32805;53.556;9.944;2022-10-15T13:36:28;7.78;;;4.05;;
17141;SDS011;32805;53.556;9.944;2022-10-15T13:38:58;6.38;;;3.80;;
17141;SDS011;32805;53.556;9.944;2022-10-15T13:41:29;6.45;;;4.32;;
17141;SDS011;32805;53.556;9.944;2022-10-15T13:43:59;35.17;;;12.25;;
17141;SDS011;32805;53.556;9.944;2022-10-15T13:46:31;7.63;;;4.63;;
17141;SDS011;32805;53.556;9.944;2022-10-15T13:49:08;7.75;;;5.25;;
17141;SDS011;32805;53.556;9.944;2022-10-15T13:51:38;8.63;;;5.05;;
17141;SDS011;32805;53.556;9.944;2022-10-15T13:54:09;6.03;;;5.32;;
17141;SDS011;32805;53.556;9.944;2022-10-15T13:56:41;7.93;;;5.15;;
17141;SDS011;32805;53.556;9.944;2022-10-15T13:59:16;7.25;;;5.07;;
17141;SDS011;32805;53.556;9.944;2022-10-15T14:01:47;7.30;;;5.78;;
17141;SDS011;32805;53.556;9.944;2022-10-15T14:04:18;6.82;;;5.10;;
17141;SDS011;32805;53.556;9.944;2022-10-15T14:06:51;9.15;;;6.55;;
17141;SDS011;32805;53.556;9.944;2022-10-15T14:09:24;10.65;;;6.97;;
17141;SDS011;32805;53.556;9.944;2022-10-15T14:11:55;10.27;;;5.70;;
17141;SDS011;32805;53.556;9.944;2022-10-15T14:14:29;9.68;;;6.78;;
17141;SDS011;32805;53.556;9.944;2022-10-15T14:17:02;11.45;;;7.90;;
17141;SDS011;32805;53.556;9.944;2022-10-15T14:19:31;11.13;;;8.52;;
17141;SDS011;32805;53.556;9.944;2022-10-15T14:22:01;11.23;;;7.95;;
17141;SDS011;32805;53.556;9.944;2022-10-15T14:24:30;10.80;;;8.35;;
17141;SDS011;32805;53.556;9.944;2022-10-15T14:27:01;8.90;;;7.57;;
17141;SDS011;32805;53.556;9.944;2022-10-15T14:29:35;10.70;;;7.63;;
17141;SDS011;32805;53.556;9.944;2022-10-15T14:32:23;9.75;;;7.82;;
17141;SDS011;32805;53.556;9.944;2022-10-15T14:34:52;9.55;;;7.38;;
17141;SDS011;32805;53.556;9.944;2022-10-15T14:37:32;11.75;;;7.35;;
17141;SDS011;32805;53.556;9.944;2022-10-15T14:43:00;10.73;;;8.32;;
17141;SDS011;32805;53.556;9.944;2022-10-15T14:45:30;11.13;;;8.10;;
17141;SDS011;32805;53.556;9.944;2022-10-15T14:48:08;12.80;;;9.07;;
17141;SDS011;32805;53.556;9.944;2022-10-15T14:50:40;13.10;;;10.20;;
17141;SDS011;32805;53.556;9.944;2022-10-15T14:53:13;13.80;;;9.90;;
17141;SDS011;32805;53.556;9.944;2022-10-15T14:55:46;12.52;;;8.57;;
17141;SDS011;32805;53.556;9.944;2022-10-15T14:58:18;11.30;;;8.15;;
17141;SDS011;32805;53.556;9.944;2022-10-15T15:00:53;12.20;;;8.80;;
17141;SDS011;32805;53.556;9.944;2022-10-15T15:03:27;12.80;;;8.85;;
17141;SDS011;32805;53.556;9.944;2022-10-15T15:05:56;11.80;;;9.15;;
17141;SDS011;32805;53.556;9.944;2022-10-15T15:08:24;10.73;;;8.60;;